Terminal Aerodrome Forecast
Issued by NWS

Current Version | Previous Version | Text Only | Print | Product List | Glossary On
Versions: 1 2 3 4 5 6 7 8 9 10 11 12 13 14 15 16 17 18 19
000
FTUS46 KSEW 221100
TAFPAE
TAF
KPAE 221130Z 2212/2312 18006KT P6SM OVC004
      TEMPO 2212/2215 3SM BR
     FM221600 18006KT P6SM OVC006
     FM221900 21008KT P6SM OVC011
     FM222100 21008KT P6SM SCT012 OVC022
     FM230000 VRB03KT P6SM SCT020 OVC035
     FM230600 VRB03KT P6SM OVC021
     FM231000 18008KT P6SM OVC012=

USA.gov is the U.S. government's official web portal to all federal, state and local government web resources and services.